Time;durP1;ratioP1;P1;durP2;ratioP2;P2;SDS_P1;SDS_P2;PMS_P1;PMS_P2;Temp;Humidity;BMP_temperature;BMP_pressure;BME280_temperature;BME280_humidity;BME280_pressure;Samples;Min_cycle;Max_cycle;Signal;HPM_P1;HPM_P2
2023/02/25 00:00:43;;;;;;;25.50;5.20;;;4.00;99.90;;;;;;5050605;28;20071;-42
2023/02/25 00:03:09;;;;;;;38.75;6.80;;;4.00;99.90;;;;;;5050297;28;20075;-43
2023/02/25 00:05:38;;;;;;;29.38;6.57;;;4.00;99.90;;;;;;5050625;28;20029;-42
2023/02/25 00:08:04;;;;;;;26.85;5.70;;;4.00;99.90;;;;;;5050626;28;20025;-42
2023/02/25 00:10:30;;;;;;;34.05;4.80;;;4.00;99.90;;;;;;5048719;28;20078;-41
2023/02/25 00:12:55;;;;;;;25.05;5.95;;;3.90;99.90;;;;;;5050185;28;20363;-41
2023/02/25 00:15:21;;;;;;;28.02;6.47;;;3.90;99.90;;;;;;5050558;28;20018;-40
2023/02/25 00:17:48;;;;;;;36.70;6.03;;;3.90;99.90;;;;;;5050814;28;20021;-41
2023/02/25 00:20:21;;;;;;;29.90;5.30;;;3.90;99.90;;;;;;5050322;28;20055;-41
2023/02/25 00:22:47;;;;;;;28.20;5.00;;;3.90;99.90;;;;;;5049907;28;20104;-41
2023/02/25 00:25:15;;;;;;;23.08;4.90;;;3.90;99.90;;;;;;5050273;28;20371;-42
2023/02/25 00:27:41;;;;;;;29.85;5.10;;;3.90;99.90;;;;;;5049677;28;20023;-41
2023/02/25 00:30:09;;;;;;;23.38;4.53;;;3.90;99.90;;;;;;5049891;28;20498;-41
2023/02/25 00:32:35;;;;;;;20.90;4.32;;;3.90;99.90;;;;;;5049744;28;20021;-41
2023/02/25 00:35:01;;;;;;;20.23;4.78;;;3.90;99.90;;;;;;5048739;28;20029;-40
2023/02/25 00:37:27;;;;;;;15.70;4.10;;;3.90;99.90;;;;;;5050148;28;20035;-40
2023/02/25 00:39:52;;;;;;;21.98;4.50;;;3.90;99.90;;;;;;5049977;28;20049;-40
2023/02/25 00:42:18;;;;;;;27.70;4.60;;;3.90;99.90;;;;;;5048126;28;20053;-41
2023/02/25 00:44:49;;;;;;;25.70;4.55;;;3.90;99.90;;;;;;5050062;28;20079;-43
2023/02/25 00:47:16;;;;;;;25.15;5.85;;;3.90;99.90;;;;;;5049292;28;20091;-42
2023/02/25 00:49:41;;;;;;;17.35;3.53;;;3.80;99.90;;;;;;5049646;28;20398;-41
2023/02/25 00:52:07;;;;;;;14.63;3.45;;;3.80;99.90;;;;;;5048291;28;20028;-43
2023/02/25 00:54:33;;;;;;;20.00;4.47;;;3.80;99.90;;;;;;5049568;28;20017;-42
2023/02/25 00:56:59;;;;;;;14.43;3.08;;;3.90;99.90;;;;;;5047907;28;20502;-42
2023/02/25 00:59:25;;;;;;;16.85;4.20;;;3.90;99.90;;;;;;5049339;28;20029;-42
2023/02/25 01:01:50;;;;;;;16.10;3.13;;;3.90;99.90;;;;;;5048582;28;20454;-42
2023/02/25 01:04:16;;;;;;;16.13;2.75;;;3.90;99.90;;;;;;5049514;28;20021;-41
2023/02/25 01:06:42;;;;;;;12.95;3.10;;;3.90;99.90;;;;;;5049780;28;20039;-42
2023/02/25 01:09:12;;;;;;;8.68;2.40;;;3.90;99.90;;;;;;5049632;28;20060;-41
2023/02/25 01:11:40;;;;;;;5.85;2.17;;;3.90;99.90;;;;;;5048085;28;20025;-41
2023/02/25 01:14:09;;;;;;;11.50;2.63;;;3.80;99.90;;;;;;5049017;28;20108;-41
2023/02/25 01:16:36;;;;;;;9.90;1.88;;;3.80;99.90;;;;;;5049318;28;20025;-41
2023/02/25 01:19:05;;;;;;;11.27;2.38;;;3.80;99.90;;;;;;5049315;28;20029;-41
2023/02/25 01:21:35;;;;;;;7.72;2.00;;;3.80;99.90;;;;;;5047821;28;20056;-42
2023/02/25 01:24:06;;;;;;;10.40;2.55;;;3.80;99.90;;;;;;5048818;28;20036;-42
2023/02/25 01:26:34;;;;;;;6.35;2.40;;;3.80;99.90;;;;;;5048643;28;20028;-41
2023/02/25 01:29:00;;;;;;;13.63;2.75;;;3.80;99.90;;;;;;5047163;28;20517;-42
2023/02/25 01:31:28;;;;;;;10.52;2.47;;;3.80;99.90;;;;;;5047876;28;20068;-41
2023/02/25 01:33:57;;;;;;;7.90;3.20;;;3.80;99.90;;;;;;5048743;28;20021;-42
2023/02/25 01:36:23;;;;;;;13.40;2.03;;;3.80;99.90;;;;;;5047297;28;20017;-40
2023/02/25 01:38:49;;;;;;;10.52;2.47;;;3.80;99.90;;;;;;5049155;28;20075;-42
2023/02/25 01:41:14;;;;;;;13.70;3.20;;;3.80;99.90;;;;;;5048904;28;20473;-41
2023/02/25 01:43:41;;;;;;;7.28;2.38;;;3.80;99.90;;;;;;5047435;28;20028;-42
2023/02/25 01:46:07;;;;;;;20.15;3.13;;;3.80;99.90;;;;;;5048470;28;20586;-42
2023/02/25 01:48:37;;;;;;;12.65;2.83;;;3.80;99.90;;;;;;5048319;28;20321;-43
2023/02/25 01:51:09;;;;;;;9.50;2.65;;;3.80;99.90;;;;;;5048729;28;20021;-42
2023/02/25 01:53:41;;;;;;;9.82;2.72;;;3.80;99.90;;;;;;5048204;28;20368;-41
2023/02/25 01:56:10;;;;;;;6.80;2.28;;;3.70;99.90;;;;;;5046906;28;20032;-41
2023/02/25 01:58:37;;;;;;;12.23;3.90;;;3.80;99.90;;;;;;5048741;28;20028;-42
2023/02/25 02:01:03;;;;;;;16.08;2.92;;;3.70;99.90;;;;;;5049023;28;20021;-41
2023/02/25 02:03:33;;;;;;;10.57;3.00;;;3.70;99.90;;;;;;5048706;28;20032;-40
2023/02/25 02:05:58;;;;;;;6.82;2.97;;;3.70;99.90;;;;;;5049054;28;20017;-42
2023/02/25 02:08:25;;;;;;;11.35;3.17;;;3.70;99.90;;;;;;5048581;28;20032;-41
2023/02/25 02:10:51;;;;;;;11.15;2.83;;;3.60;99.90;;;;;;5048437;28;20505;-41
2023/02/25 02:13:17;;;;;;;9.95;3.35;;;3.70;99.90;;;;;;5048317;28;20017;-42
2023/02/25 02:15:58;;;;;;;6.82;3.30;;;3.60;99.90;;;;;;5047010;28;20512;-41
2023/02/25 02:18:26;;;;;;;11.63;2.90;;;3.60;99.90;;;;;;5048676;28;20033;-42
2023/02/25 02:21:21;;;;;;;7.88;3.10;;;3.60;99.90;;;;;;5047059;28;20673;-41
2023/02/25 02:24:03;;;;;;;9.32;3.33;;;3.60;99.90;;;;;;5046704;28;20405;-40
2023/02/25 02:26:56;;;;;;;6.25;2.78;;;3.50;99.90;;;;;;5047186;28;20392;-41
2023/02/25 02:30:02;;;;;;;8.05;2.63;;;3.50;99.90;;;;;;5048338;28;20486;-41
2023/02/25 02:32:38;;;;;;;9.20;2.42;;;3.50;99.90;;;;;;5047164;28;20025;-42
2023/02/25 02:35:35;;;;;;;3.50;2.10;;;3.50;99.90;;;;;;5048401;28;20068;-41
2023/02/25 02:38:13;;;;;;;3.47;1.70;;;3.40;99.90;;;;;;5048596;28;20031;-42
2023/02/25 02:40:50;;;;;;;8.98;2.30;;;3.40;99.90;;;;;;5048511;28;20025;-41
2023/02/25 02:43:42;;;;;;;7.80;2.30;;;3.40;99.90;;;;;;5047939;28;20037;-41
2023/02/25 02:46:20;;;;;;;6.72;2.03;;;3.40;99.90;;;;;;5046502;28;20067;-41
2023/02/25 02:49:23;;;;;;;3.38;1.80;;;3.40;99.90;;;;;;5047960;28;20033;-41
2023/02/25 02:51:58;;;;;;;7.15;1.83;;;3.40;99.90;;;;;;5016252;28;20032;-42
2023/02/25 02:54:29;;;;;;;7.05;1.75;;;3.30;99.90;;;;;;5047954;28;20025;-43
2023/02/25 02:56:56;;;;;;;3.55;1.60;;;3.30;99.90;;;;;;5048540;28;20381;-41
2023/02/25 02:59:30;;;;;;;5.18;1.60;;;3.30;99.90;;;;;;5048822;28;20115;-40
2023/02/25 03:02:03;;;;;;;6.45;1.25;;;3.30;99.90;;;;;;5051172;28;20533;-40
2023/02/25 03:04:31;;;;;;;7.20;1.63;;;3.30;99.90;;;;;;5051593;28;20056;-40
2023/02/25 03:07:01;;;;;;;3.70;1.25;;;3.30;99.90;;;;;;5051520;28;20569;-40
2023/02/25 03:09:35;;;;;;;5.47;1.58;;;3.30;99.90;;;;;;5051970;28;20025;-42
2023/02/25 03:12:01;;;;;;;7.65;1.92;;;3.30;99.90;;;;;;5051755;28;20109;-43
2023/02/25 03:14:26;;;;;;;1.80;1.30;;;3.30;99.90;;;;;;5050873;28;20116;-42
2023/02/25 03:17:09;;;;;;;7.35;1.52;;;3.30;99.90;;;;;;5051443;28;20013;-41
2023/02/25 03:19:43;;;;;;;4.88;1.48;;;3.30;99.90;;;;;;5051308;28;20497;-44
2023/02/25 03:22:16;;;;;;;4.10;1.40;;;3.30;99.90;;;;;;5051616;28;20116;-42
2023/02/25 03:24:51;;;;;;;5.72;1.92;;;3.30;99.90;;;;;;5051680;28;20122;-41
2023/02/25 03:27:33;;;;;;;8.02;2.15;;;3.40;99.90;;;;;;5051038;28;20040;-41
2023/02/25 03:30:11;;;;;;;5.68;1.58;;;3.40;99.90;;;;;;5051311;28;20017;-41
2023/02/25 03:32:41;;;;;;;12.13;2.10;;;3.40;99.90;;;;;;5050948;28;20082;-41
2023/02/25 03:35:09;;;;;;;4.80;1.55;;;3.40;99.90;;;;;;5051135;28;20033;-43
2023/02/25 03:37:38;;;;;;;7.97;2.45;;;3.40;99.90;;;;;;5051457;28;20620;-41
2023/02/25 03:40:13;;;;;;;5.88;2.03;;;3.40;99.90;;;;;;5048834;28;20021;-42
2023/02/25 03:42:45;;;;;;;6.65;1.88;;;3.40;99.90;;;;;;5050365;28;20461;-41
2023/02/25 03:45:13;;;;;;;4.30;2.05;;;3.40;99.90;;;;;;5049739;28;20553;-41
2023/02/25 03:47:39;;;;;;;8.10;1.73;;;3.30;99.90;;;;;;5051148;28;20141;-40
2023/02/25 03:50:26;;;;;;;7.55;1.60;;;3.30;99.90;;;;;;5050774;28;20689;-41
2023/02/25 03:52:52;;;;;;;4.32;1.50;;;3.40;99.90;;;;;;5050653;28;20226;-41
2023/02/25 03:55:18;;;;;;;4.82;1.63;;;3.40;99.90;;;;;;5051340;28;20066;-40
2023/02/25 03:57:46;;;;;;;5.30;1.90;;;3.40;99.90;;;;;;5050453;28;20067;-40
2023/02/25 04:00:32;;;;;;;3.85;1.77;;;3.40;99.90;;;;;;5050497;28;20029;-41
2023/02/25 04:02:58;;;;;;;4.38;1.75;;;3.30;99.90;;;;;;5049596;28;20025;-41
2023/02/25 04:05:28;;;;;;;3.90;2.25;;;3.30;99.90;;;;;;5050708;28;20588;-41
2023/02/25 04:07:54;;;;;;;4.35;1.92;;;3.30;99.90;;;;;;5050554;28;20025;-41
2023/02/25 04:10:20;;;;;;;2.85;1.77;;;3.30;99.90;;;;;;5049697;28;20017;-42
2023/02/25 04:12:46;;;;;;;4.55;2.10;;;3.30;99.90;;;;;;5049980;28;20032;-40
2023/02/25 04:15:13;;;;;;;4.38;2.15;;;3.20;99.90;;;;;;5049916;28;20466;-40
2023/02/25 04:17:39;;;;;;;4.72;1.58;;;3.30;99.90;;;;;;5050456;28;20049;-41
2023/02/25 04:20:05;;;;;;;6.18;1.77;;;3.20;99.90;;;;;;5049736;28;20536;-41
2023/02/25 04:22:32;;;;;;;5.70;1.88;;;3.20;99.90;;;;;;5050041;28;20370;-41
2023/02/25 04:24:57;;;;;;;8.10;1.75;;;3.20;99.90;;;;;;5049891;28;20017;-40
2023/02/25 04:27:23;;;;;;;5.82;1.73;;;3.20;99.90;;;;;;5050299;28;20027;-40
2023/02/25 04:29:48;;;;;;;5.40;1.50;;;3.20;99.90;;;;;;5049337;28;20055;-40
2023/02/25 04:32:14;;;;;;;4.45;1.42;;;3.30;99.90;;;;;;5049642;28;20471;-41
2023/02/25 04:34:39;;;;;;;4.38;1.83;;;3.20;99.90;;;;;;5050026;28;20474;-41
2023/02/25 04:37:05;;;;;;;3.22;1.83;;;3.20;99.90;;;;;;5050379;28;20389;-41
2023/02/25 04:39:31;;;;;;;4.57;1.83;;;3.20;99.90;;;;;;5050078;28;20031;-41
2023/02/25 04:41:58;;;;;;;6.68;2.08;;;3.30;99.90;;;;;;5050149;28;20340;-41
2023/02/25 04:44:23;;;;;;;2.65;1.40;;;3.20;99.90;;;;;;5049999;28;20074;-42
2023/02/25 04:46:50;;;;;;;7.35;2.17;;;3.20;99.90;;;;;;5049181;28;20025;-41
2023/02/25 04:49:17;;;;;;;4.85;2.00;;;3.20;99.90;;;;;;5048422;28;20278;-42
2023/02/25 04:51:43;;;;;;;7.30;1.65;;;3.20;99.90;;;;;;5049681;28;20017;-41
2023/02/25 04:54:09;;;;;;;3.95;1.83;;;3.20;99.90;;;;;;5049226;28;20048;-41
2023/02/25 04:56:35;;;;;;;2.88;1.30;;;3.20;99.90;;;;;;5049730;28;20346;-41
2023/02/25 04:59:01;;;;;;;5.88;1.60;;;3.20;99.90;;;;;;5050004;28;20425;-41
2023/02/25 05:01:26;;;;;;;3.30;1.73;;;3.20;99.90;;;;;;5049950;28;20035;-41
2023/02/25 05:03:55;;;;;;;6.43;1.80;;;3.20;99.90;;;;;;5049163;28;20082;-41
2023/02/25 05:06:22;;;;;;;2.17;1.65;;;3.10;99.90;;;;;;5050002;28;20578;-41
2023/02/25 05:08:49;;;;;;;3.63;1.92;;;3.10;99.90;;;;;;5049296;28;20036;-41
2023/02/25 05:11:15;;;;;;;4.05;1.70;;;3.10;99.90;;;;;;5049477;28;20470;-41
2023/02/25 05:13:41;;;;;;;9.77;2.03;;;3.10;99.90;;;;;;5049266;28;20022;-41
2023/02/25 05:16:12;;;;;;;3.00;1.65;;;3.10;99.90;;;;;;5048708;28;20036;-42
2023/02/25 05:18:42;;;;;;;6.43;2.40;;;3.10;99.90;;;;;;5049410;28;20017;-41
2023/02/25 05:21:16;;;;;;;3.92;1.60;;;3.10;99.90;;;;;;5049252;28;20074;-40
2023/02/25 05:23:43;;;;;;;7.07;1.67;;;3.10;99.90;;;;;;5048834;28;20078;-41
2023/02/25 05:26:09;;;;;;;8.63;1.85;;;3.10;99.90;;;;;;5049683;28;20029;-41
2023/02/25 05:28:35;;;;;;;3.42;1.65;;;3.10;99.90;;;;;;5048576;28;20490;-40
2023/02/25 05:31:08;;;;;;;1.95;1.30;;;3.10;99.90;;;;;;5049281;28;20032;-40
2023/02/25 05:33:38;;;;;;;4.65;1.70;;;3.00;99.90;;;;;;5048515;28;20471;-41
2023/02/25 05:36:06;;;;;;;3.80;1.73;;;3.00;99.90;;;;;;5047558;28;20029;-40
2023/02/25 05:38:32;;;;;;;4.30;2.05;;;3.00;99.90;;;;;;5049295;28;20368;-40
2023/02/25 05:40:59;;;;;;;3.35;1.60;;;3.00;99.90;;;;;;5048197;28;20372;-41
2023/02/25 05:43:25;;;;;;;5.32;1.60;;;3.00;99.90;;;;;;5048642;28;20092;-43
2023/02/25 05:45:55;;;;;;;8.52;1.55;;;2.90;99.90;;;;;;5048816;28;20495;-41
2023/02/25 05:48:21;;;;;;;6.07;2.17;;;3.00;99.90;;;;;;5047928;28;20085;-42
2023/02/25 05:50:49;;;;;;;4.22;1.77;;;3.00;99.90;;;;;;5048632;28;20369;-43
2023/02/25 05:53:16;;;;;;;6.82;1.30;;;2.90;99.90;;;;;;5048437;28;20245;-42
2023/02/25 05:55:42;;;;;;;2.35;1.50;;;2.90;99.90;;;;;;5049007;28;20021;-42
2023/02/25 05:58:08;;;;;;;5.20;1.65;;;2.90;99.90;;;;;;5048773;28;20492;-42
2023/02/25 06:00:34;;;;;;;8.07;1.92;;;2.90;99.90;;;;;;5049006;28;20136;-42
2023/02/25 06:03:00;;;;;;;2.03;1.50;;;2.80;99.90;;;;;;5048334;28;20017;-42
2023/02/25 06:05:25;;;;;;;6.88;3.42;;;2.80;99.90;;;;;;5048534;28;20041;-42
2023/02/25 06:07:51;;;;;;;3.83;2.58;;;2.80;99.90;;;;;;5047695;28;20036;-41
2023/02/25 06:10:16;;;;;;;5.05;2.90;;;2.80;99.90;;;;;;5047716;28;20029;-40
2023/02/25 06:12:42;;;;;;;4.38;1.98;;;2.80;99.90;;;;;;5047934;28;20024;-43
2023/02/25 06:15:08;;;;;;;3.38;1.67;;;2.80;99.90;;;;;;5048194;28;20025;-43
2023/02/25 06:17:33;;;;;;;7.68;1.65;;;2.80;99.90;;;;;;5048238;28;20013;-42
2023/02/25 06:20:00;;;;;;;5.63;1.73;;;2.80;99.90;;;;;;5048510;28;20059;-43
2023/02/25 06:22:26;;;;;;;7.97;2.03;;;2.80;99.90;;;;;;5047935;28;20029;-41
2023/02/25 06:24:51;;;;;;;3.08;1.77;;;2.80;99.90;;;;;;5048047;28;20104;-41
2023/02/25 06:27:17;;;;;;;2.38;1.67;;;2.80;99.90;;;;;;5048457;28;20033;-43
2023/02/25 06:29:46;;;;;;;4.45;1.92;;;2.80;99.90;;;;;;5048194;28;20432;-45
2023/02/25 06:32:12;;;;;;;5.70;2.60;;;2.70;99.90;;;;;;5048287;28;20044;-41
2023/02/25 06:34:38;;;;;;;3.00;1.70;;;2.70;99.90;;;;;;5050063;28;20025;-42
2023/02/25 06:37:05;;;;;;;3.63;1.80;;;2.70;99.90;;;;;;5052555;28;20021;-42
2023/02/25 06:39:30;;;;;;;4.55;2.28;;;2.70;99.90;;;;;;5052310;28;20104;-42
2023/02/25 06:41:56;;;;;;;6.00;1.70;;;2.70;99.90;;;;;;5052014;28;20554;-42
2023/02/25 06:44:21;;;;;;;5.47;1.65;;;2.60;99.90;;;;;;5051946;28;20104;-42
2023/02/25 06:46:50;;;;;;;3.05;1.45;;;2.60;99.90;;;;;;5052288;28;20029;-41
2023/02/25 06:49:16;;;;;;;3.38;1.70;;;2.70;99.90;;;;;;5052047;28;20021;-41
2023/02/25 06:51:42;;;;;;;3.45;1.80;;;2.70;99.90;;;;;;5052132;28;20426;-42
2023/02/25 06:54:07;;;;;;;2.83;1.45;;;2.70;99.90;;;;;;5051667;28;20022;-42
2023/02/25 06:56:33;;;;;;;3.78;1.65;;;2.70;99.90;;;;;;5051856;28;20025;-41
2023/02/25 06:58:58;;;;;;;4.10;1.58;;;2.70;99.90;;;;;;5052052;28;20825;-42
2023/02/25 07:01:25;;;;;;;3.22;2.38;;;2.70;99.90;;;;;;5052170;28;20033;-43
2023/02/25 07:03:51;;;;;;;8.10;1.95;;;2.60;99.90;;;;;;5051285;28;20108;-41
2023/02/25 07:06:17;;;;;;;3.85;2.25;;;2.60;99.90;;;;;;5051882;28;20032;-43
2023/02/25 07:08:44;;;;;;;5.55;2.85;;;2.60;99.90;;;;;;5051554;28;20029;-41
2023/02/25 07:11:20;;;;;;;5.57;1.42;;;2.70;99.90;;;;;;5051703;28;20021;-43
2023/02/25 07:13:47;;;;;;;8.70;1.88;;;2.60;99.90;;;;;;5044520;28;20083;-42
2023/02/25 07:16:14;;;;;;;2.42;1.67;;;2.60;99.90;;;;;;5051544;28;20106;-42
2023/02/25 07:18:43;;;;;;;4.22;1.77;;;2.70;99.90;;;;;;5050560;28;20482;-42
2023/02/25 07:21:11;;;;;;;1.88;1.40;;;2.60;99.90;;;;;;5049927;28;20076;-42
2023/02/25 07:23:36;;;;;;;5.38;1.70;;;2.70;99.90;;;;;;5050093;28;20021;-42
2023/02/25 07:26:07;;;;;;;12.85;2.70;;;2.80;99.90;;;;;;5051640;28;20253;-42
2023/02/25 07:28:33;;;;;;;5.18;1.90;;;2.80;99.90;;;;;;5051684;28;20024;-43
2023/02/25 07:31:00;;;;;;;7.13;2.05;;;2.80;99.90;;;;;;5051054;28;20029;-43
2023/02/25 07:33:27;;;;;;;8.23;2.15;;;2.80;99.90;;;;;;5049890;28;20178;-42
2023/02/25 07:35:57;;;;;;;9.48;2.58;;;2.80;99.90;;;;;;5051531;28;20055;-42
2023/02/25 07:38:22;;;;;;;4.20;1.90;;;2.70;99.90;;;;;;5051394;28;20100;-42
2023/02/25 07:40:48;;;;;;;4.18;2.05;;;2.80;99.90;;;;;;5050024;28;20586;-43
2023/02/25 07:43:14;;;;;;;3.30;2.10;;;2.80;99.90;;;;;;5051175;28;20035;-42
2023/02/25 07:45:39;;;;;;;2.85;2.03;;;2.80;99.90;;;;;;5050156;28;20029;-42
2023/02/25 07:48:05;;;;;;;3.47;2.75;;;2.70;99.90;;;;;;5051141;28;20303;-42
2023/02/25 07:50:31;;;;;;;7.70;2.97;;;2.70;99.90;;;;;;5050735;28;20071;-42
2023/02/25 07:52:57;;;;;;;4.43;2.60;;;2.80;99.90;;;;;;5050592;28;20021;-42
2023/02/25 07:55:23;;;;;;;4.68;2.40;;;2.80;99.90;;;;;;5051172;28;20067;-42
2023/02/25 07:57:48;;;;;;;5.10;2.95;;;2.80;99.90;;;;;;5051137;28;20021;-41
2023/02/25 08:00:14;;;;;;;5.82;2.50;;;2.90;99.90;;;;;;5051046;28;20056;-43
2023/02/25 08:02:41;;;;;;;4.53;3.03;;;2.90;99.90;;;;;;5050470;28;20035;-43
2023/02/25 08:05:08;;;;;;;3.63;2.80;;;2.90;99.90;;;;;;5050781;28;20408;-43
2023/02/25 08:07:33;;;;;;;5.53;3.00;;;2.90;99.90;;;;;;5050934;28;20017;-42
2023/02/25 08:09:59;;;;;;;8.63;2.75;;;2.90;99.90;;;;;;5050402;28;20043;-42
2023/02/25 08:12:24;;;;;;;5.10;3.05;;;3.00;99.90;;;;;;5050001;28;20101;-41
2023/02/25 08:14:50;;;;;;;6.97;2.83;;;3.00;99.90;;;;;;5050609;28;20025;-41
2023/02/25 08:17:15;;;;;;;9.95;2.53;;;3.10;99.90;;;;;;5050405;28;20029;-41
2023/02/25 08:19:42;;;;;;;4.80;2.40;;;3.10;99.90;;;;;;5050635;28;20032;-42
2023/02/25 08:22:10;;;;;;;6.07;1.85;;;3.10;99.90;;;;;;5038269;28;20025;-41
2023/02/25 08:24:39;;;;;;;5.88;2.05;;;3.00;99.90;;;;;;5045478;28;20028;-42
2023/02/25 08:27:09;;;;;;;5.78;2.75;;;3.00;99.90;;;;;;5058803;28;20115;-41
2023/02/25 08:29:36;;;;;;;11.45;3.25;;;3.00;99.90;;;;;;5044438;28;20033;-41
2023/02/25 08:32:02;;;;;;;6.00;2.67;;;3.00;99.90;;;;;;5040572;28;20032;-42
2023/02/25 08:34:27;;;;;;;6.80;2.17;;;3.00;99.90;;;;;;5045088;28;20545;-42
2023/02/25 08:36:53;;;;;;;3.38;1.85;;;3.00;99.90;;;;;;5047610;28;20128;-43
2023/02/25 08:39:19;;;;;;;4.15;2.45;;;3.00;99.90;;;;;;5048434;28;20013;-43
2023/02/25 08:41:44;;;;;;;5.78;2.20;;;3.00;99.90;;;;;;5047982;28;20017;-42
2023/02/25 08:44:10;;;;;;;5.57;1.70;;;3.00;99.90;;;;;;5047525;28;20029;-41
2023/02/25 08:46:36;;;;;;;3.38;1.70;;;3.10;99.90;;;;;;5047687;28;20033;-42
2023/02/25 08:49:03;;;;;;;5.40;2.30;;;3.10;99.90;;;;;;5047857;28;20509;-42
2023/02/25 08:51:33;;;;;;;4.43;1.90;;;3.10;99.90;;;;;;5046717;28;20103;-44
2023/02/25 08:54:01;;;;;;;2.17;1.70;;;3.20;99.90;;;;;;5047051;28;20025;-42
2023/02/25 08:56:27;;;;;;;4.35;1.80;;;3.30;99.90;;;;;;5047583;28;20017;-45
2023/02/25 08:58:53;;;;;;;8.05;1.90;;;3.30;99.90;;;;;;5047611;28;20024;-42
2023/02/25 09:01:19;;;;;;;2.53;1.30;;;3.30;99.90;;;;;;5047822;28;20112;-42
2023/02/25 09:03:53;;;;;;;3.05;1.60;;;3.30;99.90;;;;;;5047341;28;20112;-43
2023/02/25 09:06:23;;;;;;;3.83;1.73;;;3.30;99.90;;;;;;5047970;28;20021;-44
2023/02/25 09:08:50;;;;;;;9.10;1.63;;;3.30;99.90;;;;;;5047347;28;20017;-43
2023/02/25 09:11:18;;;;;;;2.40;1.50;;;3.30;99.90;;;;;;5047275;28;20104;-42
2023/02/25 09:13:43;;;;;;;4.72;1.80;;;3.20;99.90;;;;;;5046750;28;20059;-43
2023/02/25 09:16:10;;;;;;;2.70;1.45;;;3.20;99.90;;;;;;5047667;28;20426;-42
2023/02/25 09:18:36;;;;;;;4.13;1.70;;;3.20;99.90;;;;;;5047509;28;20575;-41
2023/02/25 09:21:02;;;;;;;7.25;1.60;;;3.20;99.90;;;;;;5047102;28;20025;-43
2023/02/25 09:23:27;;;;;;;4.97;1.60;;;3.20;99.90;;;;;;5046697;28;20032;-43
2023/02/25 09:25:53;;;;;;;3.58;1.75;;;3.10;99.90;;;;;;5047043;28;20386;-43
2023/02/25 09:28:18;;;;;;;3.58;1.38;;;3.10;99.90;;;;;;5047234;28;20082;-42
2023/02/25 09:30:45;;;;;;;3.55;1.80;;;3.00;99.90;;;;;;5066981;28;20054;-44
2023/02/25 09:33:11;;;;;;;2.38;1.70;;;3.00;99.90;;;;;;5065534;28;20405;-43
2023/02/25 09:35:37;;;;;;;6.13;2.10;;;2.90;99.90;;;;;;5042780;28;20021;-44
2023/02/25 09:38:03;;;;;;;4.05;1.92;;;2.90;99.90;;;;;;5047357;28;20025;-44
2023/02/25 09:40:28;;;;;;;7.22;2.00;;;2.90;99.90;;;;;;5043927;28;20633;-43
2023/02/25 09:43:07;;;;;;;3.25;2.10;;;2.90;99.90;;;;;;5043119;28;20433;-43
2023/02/25 09:45:35;;;;;;;4.32;1.95;;;2.90;99.90;;;;;;5046250;28;20107;-45
2023/02/25 09:48:11;;;;;;;4.95;1.80;;;2.90;99.90;;;;;;5043453;28;20025;-42
2023/02/25 09:50:42;;;;;;;5.65;1.70;;;3.00;99.90;;;;;;5044107;28;20512;-42
2023/02/25 09:53:19;;;;;;;5.60;1.83;;;3.00;99.90;;;;;;5042945;28;20537;-43
2023/02/25 09:55:48;;;;;;;3.30;1.45;;;3.10;99.90;;;;;;5043830;28;20035;-44
2023/02/25 09:58:24;;;;;;;3.25;1.48;;;3.10;99.90;;;;;;5042085;28;20035;-43
2023/02/25 10:01:00;;;;;;;4.20;1.25;;;3.10;99.90;;;;;;5039083;28;20386;-45
2023/02/25 10:03:47;;;;;;;3.15;1.27;;;3.20;99.90;;;;;;5044902;28;20426;-44
2023/02/25 10:06:26;;;;;;;1.63;1.20;;;3.40;99.90;;;;;;5046135;28;20437;-42
2023/02/25 10:09:18;;;;;;;1.35;1.00;;;3.60;99.90;;;;;;5045004;28;20021;-43
2023/02/25 10:11:57;;;;;;;4.55;1.48;;;3.70;99.90;;;;;;5046110;28;20378;-43
2023/02/25 10:14:30;;;;;;;1.92;1.00;;;3.60;99.90;;;;;;5045892;28;20025;-45
2023/02/25 10:16:55;;;;;;;3.08;1.52;;;3.60;99.90;;;;;;5046322;28;20109;-46
2023/02/25 10:19:28;;;;;;;5.13;1.20;;;3.70;99.90;;;;;;5045660;28;20104;-42
2023/02/25 10:22:24;;;;;;;3.80;1.17;;;3.60;99.90;;;;;;5046014;28;20033;-44
2023/02/25 10:25:10;;;;;;;3.42;1.20;;;3.60;99.90;;;;;;5046229;28;20032;-45
2023/02/25 10:27:40;;;;;;;1.70;1.17;;;3.50;99.90;;;;;;5046720;28;20029;-44
2023/02/25 10:30:18;;;;;;;7.22;1.40;;;3.50;99.90;;;;;;5046835;28;20035;-43
2023/02/25 10:32:44;;;;;;;1.75;1.30;;;3.60;99.90;;;;;;5046109;28;20107;-43
2023/02/25 10:35:24;;;;;;;2.55;1.15;;;3.80;99.90;;;;;;5044686;28;20029;-43
2023/02/25 10:37:50;;;;;;;2.08;1.05;;;4.00;99.90;;;;;;5046139;28;20017;-44
2023/02/25 10:40:20;;;;;;;3.10;0.95;;;4.20;99.90;;;;;;5046029;28;20521;-43
2023/02/25 10:42:53;;;;;;;2.13;1.10;;;4.20;99.90;;;;;;5044956;28;20322;-41
2023/02/25 10:45:26;;;;;;;2.25;1.05;;;4.40;99.90;;;;;;5046265;28;20025;-42
2023/02/25 10:48:03;;;;;;;6.88;1.27;;;4.60;99.90;;;;;;5041478;28;20044;-45
2023/02/25 10:50:30;;;;;;;6.40;1.10;;;4.60;99.90;;;;;;5045783;28;20107;-44
2023/02/25 10:53:03;;;;;;;4.40;1.23;;;4.80;99.90;;;;;;5044259;28;20017;-44
2023/02/25 10:55:53;;;;;;;1.58;0.93;;;5.00;99.90;;;;;;5059208;28;20051;-46
2023/02/25 10:58:27;;;;;;;2.20;1.02;;;5.10;99.90;;;;;;5065843;28;20042;-42
2023/02/25 11:01:07;;;;;;;3.33;1.27;;;5.20;99.90;;;;;;5065686;28;20025;-42
2023/02/25 11:03:54;;;;;;;2.28;1.13;;;5.30;99.90;;;;;;5055319;28;20065;-42
2023/02/25 11:06:24;;;;;;;4.38;0.80;;;5.80;99.90;;;;;;5046304;28;20052;-43
2023/02/25 11:08:53;;;;;;;3.00;0.90;;;5.90;99.90;;;;;;5044128;28;20059;-44
2023/02/25 11:11:24;;;;;;;6.57;0.98;;;5.80;99.90;;;;;;5046008;28;20049;-44
2023/02/25 11:14:13;;;;;;;1.42;1.15;;;5.60;99.90;;;;;;5045627;28;20395;-44
2023/02/25 11:16:41;;;;;;;2.47;0.95;;;5.20;99.90;;;;;;5046017;28;20021;-43
2023/02/25 11:19:23;;;;;;;2.45;0.95;;;4.50;99.90;;;;;;5044727;28;20031;-43
2023/02/25 11:21:50;;;;;;;2.22;0.85;;;4.30;99.90;;;;;;5049726;28;20023;-42
2023/02/25 11:24:22;;;;;;;0.98;0.65;;;4.20;99.90;;;;;;5050184;28;20029;-43
2023/02/25 11:26:50;;;;;;;3.30;0.88;;;4.10;99.90;;;;;;5049358;28;20009;-43
2023/02/25 11:29:21;;;;;;;6.22;1.05;;;4.10;99.90;;;;;;5043465;28;20457;-44
2023/02/25 11:31:52;;;;;;;1.95;0.77;;;4.00;99.90;;;;;;5042672;28;20049;-42
2023/02/25 11:34:27;;;;;;;7.30;1.00;;;3.90;99.90;;;;;;5047177;28;20040;-43
2023/02/25 11:36:53;;;;;;;0.85;0.80;;;3.60;99.90;;;;;;5048086;28;20025;-44
2023/02/25 11:39:23;;;;;;;2.05;0.70;;;3.50;99.90;;;;;;5047698;28;20033;-43
2023/02/25 11:41:54;;;;;;;2.85;1.15;;;3.30;99.90;;;;;;5048264;28;20699;-43
2023/02/25 11:44:38;;;;;;;1.20;0.85;;;3.00;99.90;;;;;;5046174;28;20502;-42
2023/02/25 11:47:23;;;;;;;4.60;0.90;;;2.70;99.90;;;;;;5046763;28;20035;-43
2023/02/25 11:49:58;;;;;;;2.92;0.60;;;2.60;99.90;;;;;;5046433;28;20021;-44
2023/02/25 11:52:43;;;;;;;5.25;0.90;;;2.50;99.90;;;;;;5049656;28;20036;-45
2023/02/25 11:55:43;;;;;;;6.03;0.75;;;2.50;99.90;;;;;;5044351;28;21118;-44
2023/02/25 11:58:27;;;;;;;2.75;1.00;;;2.30;99.90;;;;;;5043851;28;20401;-42
2023/02/25 12:01:03;;;;;;;3.88;1.90;;;2.30;99.90;;;;;;5044867;28;20037;-43
2023/02/25 12:03:50;;;;;;;2.60;0.90;;;2.40;99.90;;;;;;5059533;28;20016;-44
2023/02/25 12:06:36;;;;;;;4.88;1.10;;;2.50;99.90;;;;;;5053397;28;20136;-42
2023/02/25 12:09:29;;;;;;;3.00;1.00;;;2.80;99.90;;;;;;5034902;28;20045;-45
2023/02/25 12:11:57;;;;;;;2.50;0.75;;;3.50;99.90;;;;;;5045338;28;20028;-43
2023/02/25 12:15:14;;;;;;;1.65;0.82;;;3.90;99.90;;;;;;5044017;28;20440;-43
2023/02/25 12:17:52;;;;;;;3.38;1.17;;;4.20;99.90;;;;;;5043701;28;20117;-42
2023/02/25 12:20:23;;;;;;;1.35;1.10;;;4.30;99.90;;;;;;5048125;28;20053;-43
2023/02/25 12:23:07;;;;;;;2.38;1.30;;;4.50;99.90;;;;;;5050557;28;20028;-43
2023/02/25 12:25:54;;;;;;;7.07;1.27;;;4.50;99.90;;;;;;5045283;28;20021;-43
2023/02/25 12:28:50;;;;;;;2.40;0.93;;;4.50;99.90;;;;;;5043390;28;20052;-44
2023/02/25 12:31:43;;;;;;;4.18;1.10;;;4.50;99.90;;;;;;5042874;28;20025;-43
2023/02/25 12:34:46;;;;;;;1.15;0.80;;;4.60;99.90;;;;;;5044808;28;20029;-43
2023/02/25 12:37:40;;;;;;;2.03;0.82;;;4.80;99.90;;;;;;5044128;28;20442;-42
2023/02/25 12:40:27;;;;;;;3.90;1.52;;;4.70;99.90;;;;;;5046924;28;20079;-42
2023/02/25 12:43:14;;;;;;;3.60;1.15;;;4.60;99.90;;;;;;5042039;28;20608;-43
2023/02/25 12:46:20;;;;;;;4.50;1.42;;;4.90;99.90;;;;;;5068857;28;20040;-43
2023/02/25 12:49:06;;;;;;;2.75;1.08;;;5.80;99.90;;;;;;5048044;28;20051;-43
2023/02/25 12:51:34;;;;;;;3.25;1.40;;;6.10;99.90;;;;;;5048173;28;20576;-43
2023/02/25 12:54:37;;;;;;;5.72;1.30;;;6.00;99.90;;;;;;5043962;28;20463;-43
2023/02/25 12:57:18;;;;;;;3.47;1.42;;;6.30;99.90;;;;;;5047544;28;20017;-43
2023/02/25 12:59:58;;;;;;;;;;;6.10;99.90;;;;;;5046451;28;20025;-42
2023/02/25 13:02:39;;;;;;;4.60;1.10;;;6.10;99.90;;;;;;5044937;28;20020;-42
2023/02/25 13:05:20;;;;;;;;;;;5.80;99.90;;;;;;5047175;28;20491;-43
2023/02/25 13:08:09;;;;;;;3.53;1.17;;;5.50;99.90;;;;;;5044959;28;19912;-43
2023/02/25 13:10:55;;;;;;;7.38;1.77;;;5.40;99.90;;;;;;5046709;28;20021;-45
2023/02/25 13:13:39;;;;;;;6.65;1.35;;;5.20;99.90;;;;;;5041960;28;20058;-42
2023/02/25 13:16:26;;;;;;;7.70;1.08;;;5.10;99.90;;;;;;5046538;28;20013;-44